Time;durP1;ratioP1;P1;durP2;ratioP2;P2;SDS_P1;SDS_P2;PMS_P1;PMS_P2;Temp;Humidity;BMP_temperature;BMP_pressure;BME280_temperature;BME280_humidity;BME280_pressure;Samples;Min_cycle;Max_cycle;Signal;HPM_P1;HPM_P2
2022/12/24 00:02:05;;;;;;;10.27;8.63;;;14.10;80.20;;;;;;4190986;28;20051;-60
2022/12/24 00:04:46;;;;;;;13.95;9.80;;;14.10;80.10;;;;;;4207626;28;20051;-60
2022/12/24 00:07:28;;;;;;;11.98;9.40;;;14.10;80.90;;;;;;4202284;28;20144;-58
2022/12/24 00:10:10;;;;;;;11.27;9.35;;;14.10;81.20;;;;;;4195054;28;20509;-61
2022/12/24 00:12:52;;;;;;;14.82;9.07;;;14.10;81.70;;;;;;4204779;28;20136;-60
2022/12/24 00:15:33;;;;;;;11.18;9.98;;;14.10;81.80;;;;;;4211499;28;20057;-60
2022/12/24 00:18:14;;;;;;;11.82;9.43;;;14.10;81.70;;;;;;4211077;28;20055;-61
2022/12/24 00:20:55;;;;;;;11.25;9.43;;;14.10;81.40;;;;;;4210627;28;20070;-61
2022/12/24 00:23:36;;;;;;;10.25;9.13;;;14.10;81.30;;;;;;4207779;28;20059;-61
2022/12/24 00:26:17;;;;;;;9.50;7.78;;;14.10;81.30;;;;;;4210742;28;20097;-61
2022/12/24 00:29:00;;;;;;;9.80;8.63;;;14.10;80.40;;;;;;4210307;28;20062;-62
2022/12/24 00:31:41;;;;;;;11.27;9.13;;;14.10;81.00;;;;;;4210636;28;20046;-60
2022/12/24 00:34:23;;;;;;;11.15;8.43;;;14.10;82.00;;;;;;4207405;28;20417;-60
2022/12/24 00:37:04;;;;;;;11.60;9.73;;;14.00;82.30;;;;;;4210151;28;20104;-58
2022/12/24 00:39:45;;;;;;;;;;;14.10;82.60;;;;;;4211511;28;20055;-58
2022/12/24 00:42:26;;;;;;;9.23;8.23;;;14.10;82.70;;;;;;4211048;28;19931;-59
2022/12/24 00:45:09;;;;;;;9.55;8.55;;;14.10;84.90;;;;;;4211069;28;20496;-59
2022/12/24 00:47:50;;;;;;;11.35;9.25;;;14.30;84.00;;;;;;4196182;28;20089;-58
2022/12/24 00:50:31;;;;;;;10.18;8.25;;;14.30;83.50;;;;;;4210924;28;20059;-59
2022/12/24 00:53:12;;;;;;;11.13;9.03;;;14.40;83.20;;;;;;4194427;28;20052;-59
2022/12/24 00:55:53;;;;;;;10.70;9.30;;;14.50;83.00;;;;;;4194404;28;20459;-59
2022/12/24 00:58:34;;;;;;;9.75;8.68;;;14.60;82.60;;;;;;4200934;28;20077;-59
2022/12/24 01:01:17;;;;;;;8.82;7.90;;;14.60;82.00;;;;;;4195409;28;20050;-59
2022/12/24 01:06:52;;;;;;;9.40;8.40;;;14.70;81.50;;;;;;4209447;28;20173;-58
2022/12/24 01:09:33;;;;;;;10.57;9.38;;;14.70;81.70;;;;;;4193189;28;20063;-59
2022/12/24 01:12:14;;;;;;;9.18;8.27;;;14.70;81.90;;;;;;4204261;28;20104;-58
2022/12/24 01:14:55;;;;;;;10.93;9.13;;;14.80;82.10;;;;;;4209145;28;20051;-59
2022/12/24 01:17:37;;;;;;;11.25;8.70;;;14.80;81.60;;;;;;4210388;28;20212;-58
2022/12/24 01:20:18;;;;;;;11.07;9.05;;;14.90;81.60;;;;;;4193322;28;20125;-58
2022/12/24 01:23:00;;;;;;;9.65;8.52;;;14.90;81.80;;;;;;4209418;28;20059;-58
2022/12/24 01:25:40;;;;;;;9.82;8.00;;;15.00;81.80;;;;;;4204051;28;20097;-58
2022/12/24 01:28:21;;;;;;;10.02;8.82;;;15.10;81.50;;;;;;4193141;28;20059;-59
2022/12/24 01:31:02;;;;;;;10.93;8.70;;;15.10;81.50;;;;;;4196008;28;20831;-58
2022/12/24 01:33:46;;;;;;;9.43;8.43;;;15.10;81.30;;;;;;4210302;28;20046;-58
2022/12/24 01:36:27;;;;;;;9.60;8.60;;;15.20;81.10;;;;;;4209935;28;20067;-59
2022/12/24 01:39:08;;;;;;;9.77;8.25;;;15.20;81.10;;;;;;4210267;28;20101;-58
2022/12/24 01:44:50;;;;;;;10.07;9.02;;;15.20;81.40;;;;;;4209723;28;20080;-59
2022/12/24 01:47:31;;;;;;;9.30;8.30;;;15.20;81.40;;;;;;4209502;28;20073;-58
2022/12/24 01:50:17;;;;;;;9.77;8.80;;;15.20;81.40;;;;;;4209805;28;20055;-59
2022/12/24 01:52:58;;;;;;;10.63;9.27;;;15.20;81.20;;;;;;4193310;28;20129;-58
2022/12/24 01:55:39;;;;;;;10.80;9.15;;;15.20;81.20;;;;;;4193068;28;20059;-59
2022/12/24 01:58:21;;;;;;;10.40;8.50;;;15.20;81.10;;;;;;4196387;28;20055;-59
2022/12/24 02:01:02;;;;;;;11.73;8.93;;;15.20;81.20;;;;;;4210049;28;20063;-59
2022/12/24 02:03:44;;;;;;;9.82;8.75;;;15.20;81.30;;;;;;4209651;28;20520;-59
2022/12/24 02:06:27;;;;;;;11.18;9.68;;;15.20;81.40;;;;;;4200251;28;20061;-59
2022/12/24 02:09:08;;;;;;;10.07;9.10;;;15.20;81.40;;;;;;4226406;28;20369;-59
2022/12/24 02:11:49;;;;;;;11.13;9.38;;;15.30;81.40;;;;;;4192987;28;20059;-58
2022/12/24 02:14:31;;;;;;;10.95;9.50;;;15.30;81.40;;;;;;4192855;28;20097;-59
2022/12/24 02:17:18;;;;;;;13.27;9.82;;;15.30;81.40;;;;;;4180429;28;20051;-58
2022/12/24 02:20:35;;;;;;;10.88;9.57;;;15.30;81.30;;;;;;4158674;28;20048;-59
2022/12/24 02:23:40;;;;;;;11.60;9.75;;;15.20;81.20;;;;;;4160575;28;20064;-59
2022/12/24 02:26:34;;;;;;;10.82;9.73;;;15.20;81.40;;;;;;4159167;28;20044;-59
2022/12/24 02:29:32;;;;;;;10.10;9.10;;;15.20;81.50;;;;;;4175897;28;20511;-60
2022/12/24 02:32:21;;;;;;;11.70;10.07;;;15.20;81.70;;;;;;4159990;28;20511;-60
2022/12/24 02:35:08;;;;;;;11.07;9.98;;;15.30;81.80;;;;;;4159460;28;20268;-60
2022/12/24 02:37:54;;;;;;;10.45;9.35;;;15.30;81.50;;;;;;4144311;28;20128;-59
2022/12/24 02:40:41;;;;;;;10.70;8.82;;;15.30;81.40;;;;;;4176250;28;20179;-59
2022/12/24 02:43:25;;;;;;;11.82;10.63;;;15.30;81.40;;;;;;4176209;28;20430;-60
2022/12/24 02:46:11;;;;;;;12.45;9.90;;;15.30;81.40;;;;;;4175627;28;20463;-59
2022/12/24 02:48:55;;;;;;;12.15;10.18;;;15.30;81.40;;;;;;4175929;28;20538;-59
2022/12/24 02:51:36;;;;;;;11.55;9.98;;;15.30;81.50;;;;;;4172103;28;20099;-60
2022/12/24 02:54:17;;;;;;;11.32;9.68;;;15.30;81.50;;;;;;4165026;28;20044;-59
2022/12/24 02:57:12;;;;;;;12.32;8.75;;;15.30;81.50;;;;;;4175616;28;20056;-59
2022/12/24 03:00:02;;;;;;;11.38;10.05;;;15.30;81.40;;;;;;4159866;28;20056;-59
2022/12/24 03:03:06;;;;;;;11.05;9.88;;;15.30;81.30;;;;;;4159312;28;20108;-59
2022/12/24 03:05:51;;;;;;;10.65;9.63;;;15.40;81.30;;;;;;4158745;28;20507;-59
2022/12/24 03:08:42;;;;;;;11.63;10.43;;;15.40;81.20;;;;;;4156930;28;20064;-60
2022/12/24 03:11:23;;;;;;;11.05;9.95;;;15.40;81.10;;;;;;4191144;28;20460;-59
2022/12/24 03:14:04;;;;;;;10.90;9.80;;;15.40;81.20;;;;;;4192180;28;20055;-59
2022/12/24 03:16:46;;;;;;;12.63;10.32;;;15.50;81.10;;;;;;4192069;28;20352;-59
2022/12/24 03:19:27;;;;;;;12.95;10.52;;;15.50;81.10;;;;;;4192170;28;20198;-59
2022/12/24 03:22:10;;;;;;;;;;;15.50;81.10;;;;;;4191347;28;20043;-60
2022/12/24 03:24:51;;;;;;;11.75;9.95;;;15.50;81.20;;;;;;4183295;28;19931;-59
2022/12/24 03:27:35;;;;;;;11.45;10.23;;;15.50;81.40;;;;;;4175005;28;20048;-59
2022/12/24 03:30:17;;;;;;;12.18;10.88;;;15.60;81.30;;;;;;4173656;28;20063;-59
2022/12/24 03:32:58;;;;;;;10.85;9.75;;;15.60;81.10;;;;;;4174943;28;20106;-59
2022/12/24 03:35:39;;;;;;;12.05;10.80;;;15.60;81.00;;;;;;4180097;28;20194;-58
2022/12/24 03:38:21;;;;;;;12.38;10.77;;;15.70;80.90;;;;;;4191757;28;20407;-59
2022/12/24 03:41:03;;;;;;;12.25;10.07;;;15.70;81.00;;;;;;4186656;28;20075;-59
2022/12/24 03:43:43;;;;;;;13.35;11.05;;;15.60;81.00;;;;;;4178297;28;20094;-59
2022/12/24 03:46:25;;;;;;;11.02;9.85;;;15.60;81.10;;;;;;4194842;28;20555;-59
2022/12/24 03:49:05;;;;;;;10.68;9.02;;;15.60;81.30;;;;;;4194926;28;20059;-59
2022/12/24 03:51:46;;;;;;;11.15;9.55;;;15.50;81.50;;;;;;4193870;28;20043;-58
2022/12/24 03:54:29;;;;;;;10.95;9.20;;;15.50;81.80;;;;;;4195203;28;20063;-59
2022/12/24 03:57:10;;;;;;;10.57;9.48;;;15.50;81.70;;;;;;4201142;28;20051;-60
2022/12/24 03:59:51;;;;;;;10.25;9.00;;;15.60;81.60;;;;;;4201736;28;20065;-60
2022/12/24 04:02:32;;;;;;;9.60;8.43;;;15.60;81.40;;;;;;4211298;28;20177;-59
2022/12/24 04:05:15;;;;;;;10.52;8.23;;;15.60;81.50;;;;;;4208199;28;20071;-59
2022/12/24 04:07:56;;;;;;;7.82;6.88;;;15.60;81.50;;;;;;4193139;28;20055;-59
2022/12/24 04:10:38;;;;;;;10.95;6.57;;;15.70;81.40;;;;;;4203826;28;20055;-59
2022/12/24 04:13:19;;;;;;;7.60;6.55;;;15.70;81.30;;;;;;4211002;28;20155;-59
2022/12/24 04:16:00;;;;;;;9.15;5.68;;;15.70;81.20;;;;;;4209739;28;20498;-59
2022/12/24 04:18:42;;;;;;;5.68;5.13;;;15.70;81.30;;;;;;4193901;28;20109;-60
2022/12/24 04:21:23;;;;;;;9.45;5.28;;;15.60;81.40;;;;;;4210720;28;20054;-63
2022/12/24 04:24:04;;;;;;;7.43;4.97;;;15.60;81.50;;;;;;4210584;28;20045;-62
2022/12/24 04:26:46;;;;;;;10.07;4.78;;;15.60;81.60;;;;;;4210892;28;20047;-63
2022/12/24 04:29:27;;;;;;;11.82;5.07;;;15.50;81.90;;;;;;4204842;28;20062;-61
2022/12/24 04:32:08;;;;;;;8.03;4.77;;;15.50;82.00;;;;;;4193998;28;20040;-61
2022/12/24 04:34:49;;;;;;;9.85;5.63;;;15.60;81.90;;;;;;4210442;28;20289;-63
2022/12/24 04:37:30;;;;;;;9.88;4.97;;;15.70;81.70;;;;;;4193728;28;20063;-61
2022/12/24 04:40:12;;;;;;;9.70;5.45;;;15.70;81.50;;;;;;4193943;28;20055;-62
2022/12/24 04:42:54;;;;;;;9.57;5.18;;;15.70;81.50;;;;;;4209997;28;20090;-61
2022/12/24 04:45:35;;;;;;;14.77;5.40;;;15.70;81.40;;;;;;4193581;28;20198;-61
2022/12/24 04:48:16;;;;;;;14.57;5.25;;;15.80;81.30;;;;;;4193156;28;20056;-61
2022/12/24 04:50:57;;;;;;;7.10;4.25;;;15.80;81.20;;;;;;4193509;28;20166;-63
2022/12/24 04:53:39;;;;;;;12.30;4.70;;;15.80;81.20;;;;;;4192608;28;20550;-63
2022/12/24 04:56:22;;;;;;;12.82;4.85;;;15.80;81.20;;;;;;4209932;28;20498;-62
2022/12/24 04:59:04;;;;;;;12.55;4.80;;;15.80;82.20;;;;;;4209587;28;20067;-61
2022/12/24 05:01:45;;;;;;;18.10;4.10;;;15.80;81.20;;;;;;4210303;28;20533;-61
2022/12/24 05:04:25;;;;;;;15.83;4.43;;;15.80;81.00;;;;;;4210276;28;20055;-61
2022/12/24 05:07:06;;;;;;;16.33;4.05;;;15.90;80.90;;;;;;4210810;28;20857;-61
2022/12/24 05:09:48;;;;;;;18.92;4.30;;;15.90;80.90;;;;;;4210264;28;20047;-62
2022/12/24 05:12:29;;;;;;;19.27;4.07;;;15.80;81.00;;;;;;4209611;28;20447;-62
2022/12/24 05:15:11;;;;;;;18.75;4.63;;;15.90;81.00;;;;;;4193556;28;20067;-63
2022/12/24 05:17:52;;;;;;;18.27;4.38;;;15.90;80.90;;;;;;4209766;28;20200;-62
2022/12/24 05:20:33;;;;;;;18.20;3.72;;;15.90;80.80;;;;;;4210234;28;20051;-62
2022/12/24 05:26:22;;;;;;;18.67;3.90;;;15.90;80.80;;;;;;4210150;28;20055;-60
2022/12/24 05:29:05;;;;;;;19.92;4.45;;;16.00;80.90;;;;;;4210315;28;20067;-59
2022/12/24 05:31:47;;;;;;;18.70;4.03;;;16.00;80.60;;;;;;4210562;28;20432;-59
2022/12/24 05:34:28;;;;;;;18.00;4.07;;;16.00;80.40;;;;;;4209758;28;20540;-60
2022/12/24 05:37:09;;;;;;;22.02;3.83;;;16.10;81.20;;;;;;4208618;28;20059;-60
2022/12/24 05:39:50;;;;;;;24.10;5.35;;;16.10;80.30;;;;;;4209914;28;20059;-59
2022/12/24 05:42:31;;;;;;;20.92;4.60;;;16.00;80.40;;;;;;4192999;28;20060;-60
2022/12/24 05:45:12;;;;;;;19.17;4.35;;;15.90;80.60;;;;;;4204350;28;20047;-60
2022/12/24 05:47:54;;;;;;;16.48;4.38;;;15.90;80.80;;;;;;4209459;28;20520;-59
2022/12/24 05:50:35;;;;;;;13.77;3.63;;;15.80;80.90;;;;;;4193321;28;20059;-59
2022/12/24 05:53:18;;;;;;;20.23;4.50;;;15.80;81.30;;;;;;4193554;28;20051;-59
2022/12/24 05:56:04;;;;;;;22.65;5.45;;;15.80;81.50;;;;;;4209702;28;20440;-59
2022/12/24 05:58:45;;;;;;;17.48;4.13;;;15.80;81.50;;;;;;4209707;28;20051;-59
2022/12/24 06:01:26;;;;;;;31.98;4.40;;;15.80;81.50;;;;;;4208370;28;20463;-59
2022/12/24 06:04:09;;;;;;;25.60;4.63;;;15.90;81.60;;;;;;4208832;28;20185;-59
2022/12/24 06:06:49;;;;;;;18.95;5.25;;;15.90;81.50;;;;;;4206443;28;20698;-59
2022/12/24 06:09:31;;;;;;;21.30;4.47;;;15.90;81.20;;;;;;4209318;28;20051;-60
2022/12/24 06:12:11;;;;;;;21.43;5.00;;;15.90;81.20;;;;;;4209513;28;20051;-59
2022/12/24 06:14:52;;;;;;;22.23;4.55;;;15.90;81.10;;;;;;4208037;28;20301;-60
2022/12/24 06:17:33;;;;;;;26.10;5.45;;;15.90;81.20;;;;;;4209316;28;20068;-60
2022/12/24 06:20:16;;;;;;;29.85;4.65;;;15.90;81.30;;;;;;4209592;28;20510;-59
2022/12/24 06:22:57;;;;;;;20.08;4.78;;;15.90;81.20;;;;;;4192462;28;20059;-59
2022/12/24 06:25:37;;;;;;;24.80;4.45;;;16.00;81.10;;;;;;4192562;28;20064;-60
2022/12/24 06:28:19;;;;;;;25.80;5.23;;;16.00;81.00;;;;;;4192739;28;20063;-61
2022/12/24 06:31:01;;;;;;;20.92;4.55;;;16.00;80.90;;;;;;4192456;28;20297;-61
2022/12/24 06:33:43;;;;;;;19.50;4.72;;;15.90;81.00;;;;;;4206510;28;20185;-61
2022/12/24 06:36:26;;;;;;;20.58;4.55;;;15.90;81.10;;;;;;4208895;28;20051;-61
2022/12/24 06:39:07;;;;;;;19.75;4.53;;;15.90;81.20;;;;;;4192215;28;20055;-61
2022/12/24 06:41:48;;;;;;;26.30;5.45;;;16.00;81.10;;;;;;4193352;28;20055;-61
2022/12/24 06:44:29;;;;;;;23.83;4.60;;;16.00;81.10;;;;;;4208233;28;20059;-61
2022/12/24 06:47:10;;;;;;;29.65;5.63;;;15.90;81.00;;;;;;4208444;28;20182;-61
2022/12/24 06:49:51;;;;;;;22.85;4.78;;;15.90;81.30;;;;;;4208774;28;20055;-61
2022/12/24 06:52:33;;;;;;;27.17;4.30;;;15.90;81.30;;;;;;4207055;28;20134;-61
2022/12/24 06:55:15;;;;;;;22.33;6.07;;;15.90;81.20;;;;;;4207366;28;20051;-63
2022/12/24 06:57:55;;;;;;;21.92;5.25;;;16.00;81.30;;;;;;4208713;28;20882;-61
2022/12/24 07:00:36;;;;;;;22.30;4.55;;;15.90;81.30;;;;;;4208525;28;20059;-61
2022/12/24 07:03:18;;;;;;;20.35;4.57;;;16.00;81.60;;;;;;4207898;28;20564;-62
2022/12/24 07:05:59;;;;;;;21.92;5.20;;;16.00;81.50;;;;;;4207897;28;20586;-62
2022/12/24 07:08:41;;;;;;;;;;;16.00;81.40;;;;;;4205935;28;20047;-63
2022/12/24 07:11:24;;;;;;;21.92;4.68;;;16.00;81.40;;;;;;4207505;28;19931;-62
2022/12/24 07:14:05;;;;;;;22.83;4.95;;;16.00;81.60;;;;;;4208812;28;20488;-62
2022/12/24 07:16:46;;;;;;;21.38;4.95;;;16.00;80.70;;;;;;4208107;28;20055;-63
2022/12/24 07:19:27;;;;;;;29.60;5.45;;;16.00;81.40;;;;;;4190826;28;20075;-63
2022/12/24 07:22:08;;;;;;;27.60;5.72;;;16.00;81.20;;;;;;4177805;28;20052;-63
2022/12/24 07:24:56;;;;;;;15.88;4.32;;;16.00;81.20;;;;;;4208429;28;20082;-63
2022/12/24 07:27:37;;;;;;;24.77;5.07;;;16.00;81.20;;;;;;4191829;28;20064;-60
2022/12/24 07:30:18;;;;;;;28.40;5.05;;;15.90;81.30;;;;;;4192918;28;20555;-60
2022/12/24 07:32:58;;;;;;;23.77;5.35;;;15.90;81.40;;;;;;4206663;28;20501;-62
2022/12/24 07:35:39;;;;;;;22.90;4.38;;;15.90;81.50;;;;;;4207920;28;20406;-62
2022/12/24 07:38:20;;;;;;;20.45;3.97;;;15.80;81.80;;;;;;4208110;28;20097;-62
2022/12/24 07:41:02;;;;;;;19.57;3.93;;;15.90;82.00;;;;;;4191371;28;20133;-62
2022/12/24 07:43:44;;;;;;;22.95;4.53;;;15.90;81.80;;;;;;4208204;28;20312;-62
2022/12/24 07:46:24;;;;;;;22.92;4.22;;;16.00;81.70;;;;;;4191610;28;20509;-62
2022/12/24 07:49:05;;;;;;;27.65;4.90;;;16.00;81.50;;;;;;4195672;28;20058;-63
2022/12/24 07:51:46;;;;;;;20.40;4.55;;;15.90;81.50;;;;;;4200759;28;20513;-60
2022/12/24 07:54:27;;;;;;;22.15;4.18;;;15.90;81.60;;;;;;4203543;28;20089;-60
2022/12/24 07:57:09;;;;;;;24.52;4.85;;;16.00;81.60;;;;;;4207599;28;20055;-60
2022/12/24 07:59:50;;;;;;;22.33;5.22;;;16.00;81.80;;;;;;4203478;28;20505;-60
2022/12/24 08:02:31;;;;;;;17.05;3.78;;;16.00;82.00;;;;;;4191593;28;20518;-60
2022/12/24 08:05:11;;;;;;;21.40;4.27;;;16.00;82.10;;;;;;4194000;28;20198;-61
2022/12/24 08:07:53;;;;;;;26.90;4.22;;;16.00;82.40;;;;;;4207561;28;20286;-60
2022/12/24 08:10:33;;;;;;;26.43;6.17;;;16.00;82.90;;;;;;4207691;28;20623;-60
2022/12/24 08:13:16;;;;;;;25.25;4.57;;;16.00;82.90;;;;;;4207896;28;20391;-60
2022/12/24 08:15:57;;;;;;;22.60;5.57;;;16.00;82.70;;;;;;4207952;28;20077;-61
2022/12/24 08:18:38;;;;;;;20.50;4.68;;;16.00;82.50;;;;;;4207950;28;20632;-62
2022/12/24 08:21:19;;;;;;;25.77;5.20;;;16.00;82.20;;;;;;4207995;28;20110;-62
2022/12/24 08:24:00;;;;;;;25.42;4.93;;;16.00;82.00;;;;;;4208061;28;20090;-62
2022/12/24 08:26:41;;;;;;;18.70;4.47;;;15.90;81.80;;;;;;4208126;28;20055;-62
2022/12/24 08:29:23;;;;;;;19.20;3.95;;;15.90;81.80;;;;;;4209945;28;20055;-62
2022/12/24 08:32:04;;;;;;;16.45;3.08;;;15.80;81.70;;;;;;4197155;28;20054;-62
2022/12/24 08:34:46;;;;;;;11.73;2.30;;;15.80;81.80;;;;;;4211161;28;20113;-61
2022/12/24 08:37:27;;;;;;;26.98;4.70;;;15.80;81.70;;;;;;4194404;28;20055;-60
2022/12/24 08:40:09;;;;;;;21.40;3.67;;;15.80;81.20;;;;;;4198568;28;20067;-61
2022/12/24 08:42:50;;;;;;;25.95;5.43;;;15.90;80.80;;;;;;4207987;28;20384;-60
2022/12/24 08:45:32;;;;;;;22.38;5.55;;;16.00;80.50;;;;;;4194275;28;20502;-59
2022/12/24 08:48:20;;;;;;;23.17;4.10;;;16.00;79.50;;;;;;4194455;28;20047;-61
2022/12/24 08:51:01;;;;;;;22.88;4.85;;;16.00;80.10;;;;;;4203363;28;20058;-61
2022/12/24 08:53:42;;;;;;;17.70;4.43;;;16.00;79.90;;;;;;4209549;28;20050;-61
2022/12/24 08:56:23;;;;;;;26.37;5.07;;;16.00;79.80;;;;;;4210386;28;20227;-61
2022/12/24 08:59:03;;;;;;;21.42;3.72;;;16.00;79.70;;;;;;4210762;28;20051;-61
2022/12/24 09:01:46;;;;;;;20.77;3.50;;;16.00;79.70;;;;;;4210291;28;20058;-62
2022/12/24 09:04:27;;;;;;;19.67;3.95;;;15.90;79.50;;;;;;4210545;28;20055;-62
2022/12/24 09:07:08;;;;;;;26.15;4.55;;;16.00;79.40;;;;;;4210240;28;20063;-62
2022/12/24 09:09:49;;;;;;;27.73;4.75;;;15.90;79.40;;;;;;4205399;28;20051;-62
2022/12/24 09:12:30;;;;;;;17.65;3.67;;;15.90;79.40;;;;;;4199362;28;20050;-62
2022/12/24 09:15:13;;;;;;;20.55;5.25;;;15.80;79.30;;;;;;4193868;28;20532;-62
2022/12/24 09:17:55;;;;;;;30.08;5.53;;;15.80;79.50;;;;;;4193710;28;20067;-64
2022/12/24 09:20:36;;;;;;;19.67;4.55;;;15.80;79.60;;;;;;4207376;27;20055;-62
2022/12/24 09:23:21;;;;;;;13.02;3.53;;;15.80;79.50;;;;;;4190158;28;20405;-63
2022/12/24 09:26:05;;;;;;;19.63;5.05;;;15.80;79.30;;;;;;4191878;28;20047;-62
2022/12/24 09:28:46;;;;;;;23.35;4.90;;;15.80;79.30;;;;;;4192979;28;20562;-64
2022/12/24 09:31:28;;;;;;;27.17;5.53;;;15.80;79.20;;;;;;4205554;28;20063;-62
2022/12/24 09:34:10;;;;;;;;;;;15.80;79.30;;;;;;4189997;28;20098;-63
2022/12/24 09:36:53;;;;;;;20.63;3.85;;;15.80;79.40;;;;;;4189767;28;20034;-64
2022/12/24 09:39:34;;;;;;;20.40;5.22;;;15.80;79.30;;;;;;4206127;28;20059;-62
2022/12/24 09:42:23;;;;;;;27.98;5.13;;;15.80;79.10;;;;;;4207221;28;20054;-65
2022/12/24 09:45:13;;;;;;;21.75;4.25;;;15.80;79.00;;;;;;4206972;28;20077;-64
2022/12/24 09:47:57;;;;;;;22.63;5.22;;;15.80;79.00;;;;;;4205861;28;20086;-63
2022/12/24 09:50:46;;;;;;;21.35;5.20;;;15.80;79.10;;;;;;4188845;28;20196;-61
2022/12/24 09:53:37;;;;;;;19.60;4.40;;;15.90;79.00;;;;;;4206571;28;20063;-61
2022/12/24 09:56:22;;;;;;;23.10;4.90;;;15.90;78.80;;;;;;4206332;28;20050;-62
2022/12/24 09:59:05;;;;;;;20.73;4.32;;;15.90;78.70;;;;;;4207185;28;20055;-63
2022/12/24 10:01:47;;;;;;;18.05;4.90;;;15.90;78.70;;;;;;4205565;28;20132;-61
2022/12/24 10:04:32;;;;;;;17.67;4.28;;;15.80;78.60;;;;;;4207171;28;20067;-61
2022/12/24 10:07:28;;;;;;;18.15;4.60;;;15.80;78.70;;;;;;4206931;28;20055;-61
2022/12/24 10:10:18;;;;;;;17.15;3.90;;;15.80;78.90;;;;;;4205633;28;20055;-62
2022/12/24 10:13:09;;;;;;;20.73;4.35;;;15.70;79.10;;;;;;4206622;28;20051;-62
2022/12/24 10:15:56;;;;;;;22.48;4.68;;;15.70;79.30;;;;;;4205183;28;21148;-63
2022/12/24 10:18:48;;;;;;;20.45;4.65;;;15.80;79.20;;;;;;4205699;28;20196;-62
2022/12/24 10:21:33;;;;;;;;;;;15.90;79.60;;;;;;4207196;28;20158;-63
2022/12/24 10:24:21;;;;;;;20.58;4.78;;;16.00;78.30;;;;;;4206870;28;19931;-62
2022/12/24 10:27:06;;;;;;;19.27;6.32;;;16.20;78.50;;;;;;4206471;28;20059;-62
2022/12/24 10:29:52;;;;;;;23.58;6.85;;;16.30;77.10;;;;;;4206471;28;20059;-62
2022/12/24 10:32:35;;;;;;;19.45;4.53;;;16.50;76.40;;;;;;4206301;28;20133;-62
2022/12/24 10:35:22;;;;;;;24.80;5.03;;;16.60;75.70;;;;;;4206180;28;20055;-62
2022/12/24 10:38:03;;;;;;;24.05;6.10;;;16.70;75.40;;;;;;4206270;28;20055;-62
2022/12/24 10:40:48;;;;;;;26.65;5.22;;;16.70;75.20;;;;;;4206931;28;20512;-62
2022/12/24 10:43:30;;;;;;;26.73;4.72;;;16.70;75.10;;;;;;4205017;28;20055;-62
2022/12/24 10:46:19;;;;;;;23.20;4.15;;;16.60;75.20;;;;;;4206207;28;20490;-62
2022/12/24 10:49:03;;;;;;;30.55;9.00;;;16.60;75.50;;;;;;4206484;28;20058;-61
2022/12/24 10:51:50;;;;;;;23.88;6.18;;;16.60;75.70;;;;;;4205444;28;20170;-61
2022/12/24 10:54:37;;;;;;;20.98;4.68;;;16.60;75.50;;;;;;4206459;28;20062;-62
2022/12/24 10:57:26;;;;;;;22.80;4.13;;;16.60;75.30;;;;;;4206408;28;20063;-61
2022/12/24 11:00:20;;;;;;;22.00;5.53;;;16.70;75.20;;;;;;4206273;28;20431;-61
2022/12/24 11:03:20;;;;;;;23.85;5.22;;;16.70;75.20;;;;;;4206010;28;20051;-62
2022/12/24 11:06:05;;;;;;;18.27;5.07;;;16.60;75.40;;;;;;4205752;28;20494;-62
2022/12/24 11:08:47;;;;;;;21.02;5.47;;;16.60;75.70;;;;;;4205959;28;20401;-62
2022/12/24 11:11:35;;;;;;;22.52;4.95;;;16.50;75.90;;;;;;4205410;28;20077;-62
2022/12/24 11:14:21;;;;;;;18.83;5.55;;;16.50;75.90;;;;;;4206106;28;20055;-62
2022/12/24 11:17:02;;;;;;;19.65;5.13;;;16.50;76.00;;;;;;4205382;28;20059;-61
2022/12/24 11:19:48;;;;;;;16.20;5.22;;;16.50;76.00;;;;;;4205291;28;20136;-61
2022/12/24 11:22:31;;;;;;;17.90;4.47;;;16.50;76.10;;;;;;4205174;28;20573;-61
2022/12/24 11:25:22;;;;;;;16.48;4.55;;;16.40;76.30;;;;;;4204809;28;20070;-61
2022/12/24 11:28:12;;;;;;;23.52;7.28;;;16.30;76.40;;;;;;4204334;28;20404;-61
2022/12/24 11:31:00;;;;;;;18.52;4.40;;;16.30;76.80;;;;;;4206045;28;20051;-61
2022/12/24 11:33:47;;;;;;;19.65;5.18;;;16.20;77.00;;;;;;4205653;28;20400;-62
2022/12/24 11:36:30;;;;;;;14.68;4.55;;;16.10;77.30;;;;;;4204295;28;20170;-64
2022/12/24 11:39:19;;;;;;;15.45;4.57;;;16.10;77.70;;;;;;4205560;28;20082;-64
2022/12/24 11:42:01;;;;;;;17.90;4.32;;;16.00;77.90;;;;;;4204304;28;20059;-64
2022/12/24 11:44:48;;;;;;;;;;;16.00;78.10;;;;;;4205630;28;20257;-65
2022/12/24 11:47:35;;;;;;;17.42;4.43;;;16.00;78.40;;;;;;4205388;28;19930;-64
2022/12/24 11:50:22;;;;;;;22.67;5.05;;;15.80;78.50;;;;;;4205336;28;20059;-62
2022/12/24 11:53:07;;;;;;;21.38;6.07;;;15.80;78.70;;;;;;4205243;28;20655;-64
2022/12/24 11:55:50;;;;;;;21.90;4.72;;;15.80;78.80;;;;;;4205796;28;20086;-64
2022/12/24 11:58:37;;;;;;;15.82;4.28;;;15.70;79.00;;;;;;4205119;28;20170;-64
2022/12/24 12:01:23;;;;;;;20.55;4.45;;;15.70;79.30;;;;;;4205605;28;20058;-65
2022/12/24 12:04:13;;;;;;;11.57;3.13;;;15.80;79.10;;;;;;4208552;28;20058;-65
2022/12/24 12:06:57;;;;;;;14.40;4.28;;;15.80;78.80;;;;;;4208666;28;20054;-61
2022/12/24 12:09:41;;;;;;;13.75;4.35;;;15.90;78.60;;;;;;4203881;28;20406;-62
2022/12/24 12:12:26;;;;;;;13.13;4.25;;;15.90;78.70;;;;;;4208472;28;20081;-61
2022/12/24 12:15:15;;;;;;;21.45;4.63;;;15.90;79.80;;;;;;4208245;28;20055;-61
2022/12/24 12:18:03;;;;;;;16.38;3.97;;;15.90;78.80;;;;;;4208185;28;20109;-60
2022/12/24 12:20:50;;;;;;;17.15;4.25;;;16.00;79.00;;;;;;4208651;28;20075;-62
2022/12/24 12:23:35;;;;;;;21.88;4.75;;;16.00;79.00;;;;;;4207460;28;20055;-61
2022/12/24 12:26:22;;;;;;;17.73;4.05;;;16.00;78.70;;;;;;4208060;28;20059;-62
2022/12/24 12:29:17;;;;;;;16.60;4.38;;;16.10;79.50;;;;;;4191658;28;20501;-62
2022/12/24 12:32:04;;;;;;;20.60;5.30;;;16.10;79.60;;;;;;4207991;28;20054;-61
2022/12/24 12:34:56;;;;;;;20.02;5.10;;;16.10;78.90;;;;;;4208324;28;20417;-61
2022/12/24 12:37:39;;;;;;;;;;;16.10;78.80;;;;;;4196954;28;20059;-65
2022/12/24 12:40:20;;;;;;;20.08;4.97;;;16.10;79.00;;;;;;4208533;28;19935;-66
2022/12/24 12:43:08;;;;;;;14.85;7.25;;;16.00;79.50;;;;;;4202806;28;20051;-66
2022/12/24 12:45:58;;;;;;;14.70;3.90;;;16.00;79.70;;;;;;4208187;28;20562;-66
2022/12/24 12:49:05;;;;;;;15.80;5.25;;;15.90;80.00;;;;;;4207614;28;20050;-68
2022/12/24 12:51:51;;;;;;;24.35;6.13;;;15.90;80.20;;;;;;4206450;28;20083;-66
2022/12/24 12:54:55;;;;;;;15.45;5.10;;;15.90;80.30;;;;;;4206804;28;21105;-66
2022/12/24 12:57:39;;;;;;;11.15;5.05;;;16.00;80.90;;;;;;4191035;28;20063;-66
2022/12/24 13:00:21;;;;;;;17.75;5.45;;;16.00;80.10;;;;;;4205948;28;20098;-63
2022/12/24 13:03:35;;;;;;;15.25;4.28;;;16.10;80.00;;;;;;4190849;28;20132;-63
2022/12/24 13:06:52;;;;;;;19.67;5.18;;;16.20;79.60;;;;;;4207895;28;20529;-65
2022/12/24 13:09:51;;;;;;;16.65;4.40;;;16.30;79.20;;;;;;4207306;28;20070;-64
2022/12/24 13:12:54;;;;;;;18.52;5.45;;;16.40;78.90;;;;;;4217694;28;20490;-61
2022/12/24 13:16:08;;;;;;;19.00;5.00;;;16.40;78.70;;;;;;4206274;28;20128;-61
2022/12/24 13:19:00;;;;;;;15.82;5.45;;;16.40;78.60;;;;;;4201340;28;20141;-61
2022/12/24 13:21:44;;;;;;;16.40;4.93;;;16.30;78.80;;;;;;4207608;28;20051;-61
2022/12/24 13:24:29;;;;;;;13.40;5.07;;;16.30;79.00;;;;;;4207267;28;20401;-61
2022/12/24 13:27:17;;;;;;;18.58;4.50;;;16.20;79.10;;;;;;4207391;28;20055;-61
2022/12/24 13:30:01;;;;;;;16.23;3.90;;;16.20;79.40;;;;;;4207551;28;20051;-61
2022/12/24 13:32:51;;;;;;;;;;;16.10;79.80;;;;;;4207826;28;20109;-62
2022/12/24 13:35:37;;;;;;;14.15;3.70;;;16.10;80.30;;;;;;4207358;28;19970;-61
2022/12/24 13:38:43;;;;;;;18.80;4.40;;;16.10;80.60;;;;;;4206919;28;20059;-61
2022/12/24 13:41:50;;;;;;;14.13;4.53;;;16.10;80.10;;;;;;4207408;28;20054;-61
2022/12/24 13:44:33;;;;;;;20.02;4.38;;;16.20;80.00;;;;;;4206969;28;20567;-61
2022/12/24 13:47:25;;;;;;;17.38;3.70;;;16.30;79.90;;;;;;4206314;28;20735;-61
2022/12/24 13:50:25;;;;;;;17.63;3.80;;;16.30;79.50;;;;;;4190261;28;20059;-61
2022/12/24 13:53:18;;;;;;;18.17;5.70;;;16.30;79.40;;;;;;4205532;28;20059;-61
2022/12/24 13:56:07;;;;;;;15.57;4.60;;;16.30;79.40;;;;;;4194536;28;20051;-61
2022/12/24 13:58:50;;;;;;;13.35;4.32;;;16.30;79.40;;;;;;4193448;28;20051;-61
2022/12/24 14:01:36;;;;;;;18.08;5.45;;;16.30;79.60;;;;;;4190375;28;20059;-61
2022/12/24 14:04:26;;;;;;;15.27;4.45;;;16.30;79.70;;;;;;4194389;28;20136;-61
2022/12/24 14:07:08;;;;;;;15.98;4.35;;;16.30;79.60;;;;;;4200668;28;20201;-61
2022/12/24 14:09:51;;;;;;;17.60;4.25;;;16.30;78.60;;;;;;4206939;28;20051;-60
2022/12/24 14:12:47;;;;;;;16.17;4.03;;;16.30;79.40;;;;;;4206009;28;20501;-61
2022/12/24 14:16:05;;;;;;;14.27;3.80;;;16.30;79.70;;;;;;4202778;28;20067;-61
2022/12/24 14:18:50;;;;;;;14.40;5.30;;;16.30;79.70;;;;;;4202723;28;20050;-61